Vordingborg, Denmark
Current Conditions -  °F | °C
As of 12:50 AM on Friday 19 Dec 2014 (Local Time) from EKRK Reporting Station
Overcast Overcast  
Wind Chill: 50°   Ceiling: 1000
Heat Index: 50°   Visibility: 5mi
Dew Point: 50°   Wind: 20mph
Humidity: 100%   Direction: 260°W
Pressure: 29.38"   Gusts: NA
Location:  55.01°N, 11.91°E
Report Text: EKRK 182350Z AUTO 26017KT 8000NDV FEW007/// BKN010///OVC013/// 10/10 Q0995
Loading
Personal Weather Stations






























Interactive Weather Map New forecast layout! Learn more

10-Day Weather Forecast

Advertisements
Track Severe Weather on mobile